sensor_id;sensor_type;location;lat;lon;timestamp;pressure;altitude;pressure_sealevel;temperature;humidity
78857;BME280;68207;50.078;19.936;2023-03-14T00:01:20;97598.27;;;10.86;49.46
78857;BME280;68207;50.078;19.936;2023-03-14T00:03:46;97598.45;;;10.92;49.16
78857;BME280;68207;50.078;19.936;2023-03-14T00:06:12;97596.03;;;10.98;48.90
78857;BME280;68207;50.078;19.936;2023-03-14T00:08:38;97595.60;;;11.04;48.64
78857;BME280;68207;50.078;19.936;2023-03-14T00:11:15;97597.63;;;11.10;48.50
78857;BME280;68207;50.078;19.936;2023-03-14T00:13:41;97589.98;;;11.15;48.37
78857;BME280;68207;50.078;19.936;2023-03-14T00:16:10;97588.73;;;11.21;48.04
78857;BME280;68207;50.078;19.936;2023-03-14T00:18:35;97581.90;;;11.27;47.80
78857;BME280;68207;50.078;19.936;2023-03-14T00:21:03;97580.33;;;11.30;47.96
78857;BME280;68207;50.078;19.936;2023-03-14T00:23:30;97577.09;;;11.34;47.61
78857;BME280;68207;50.078;19.936;2023-03-14T00:26:00;97574.27;;;11.37;47.78
78857;BME280;68207;50.078;19.936;2023-03-14T00:28:27;97573.48;;;11.40;47.80
78857;BME280;68207;50.078;19.936;2023-03-14T00:30:53;97570.32;;;11.42;47.54
78857;BME280;68207;50.078;19.936;2023-03-14T00:33:19;97572.34;;;11.46;47.40
78857;BME280;68207;50.078;19.936;2023-03-14T00:35:55;97564.55;;;11.47;47.33
78857;BME280;68207;50.078;19.936;2023-03-14T00:38:21;97555.70;;;11.50;47.40
78857;BME280;68207;50.078;19.936;2023-03-14T00:40:46;97550.59;;;11.53;47.28
78857;BME280;68207;50.078;19.936;2023-03-14T00:43:11;97539.05;;;11.56;47.29
78857;BME280;68207;50.078;19.936;2023-03-14T00:45:37;97535.73;;;11.59;47.15
78857;BME280;68207;50.078;19.936;2023-03-14T00:48:02;97530.70;;;11.60;46.89
78857;BME280;68207;50.078;19.936;2023-03-14T00:50:28;97522.23;;;11.64;47.02
78857;BME280;68207;50.078;19.936;2023-03-14T00:52:53;97514.30;;;11.66;47.25
78857;BME280;68207;50.078;19.936;2023-03-14T00:55:18;97510.48;;;11.68;47.07
78857;BME280;68207;50.078;19.936;2023-03-14T00:57:43;97507.20;;;11.70;47.21
78857;BME280;68207;50.078;19.936;2023-03-14T01:00:09;97503.56;;;11.72;47.18
78857;BME280;68207;50.078;19.936;2023-03-14T01:02:37;97491.02;;;11.74;47.24
78857;BME280;68207;50.078;19.936;2023-03-14T01:05:02;97482.65;;;11.76;47.32
78857;BME280;68207;50.078;19.936;2023-03-14T01:07:29;97476.25;;;11.76;47.14
78857;BME280;68207;50.078;19.936;2023-03-14T01:09:54;97467.92;;;11.79;47.17
78857;BME280;68207;50.078;19.936;2023-03-14T01:12:19;97453.05;;;11.80;47.20
78857;BME280;68207;50.078;19.936;2023-03-14T01:14:45;97441.14;;;11.81;47.15
78857;BME280;68207;50.078;19.936;2023-03-14T01:17:10;97434.39;;;11.83;47.21
78857;BME280;68207;50.078;19.936;2023-03-14T01:19:35;97428.83;;;11.85;47.29
78857;BME280;68207;50.078;19.936;2023-03-14T01:22:00;97426.34;;;11.87;46.95
78857;BME280;68207;50.078;19.936;2023-03-14T01:24:26;97421.03;;;11.88;47.07
78857;BME280;68207;50.078;19.936;2023-03-14T01:26:51;97424.06;;;11.92;47.03
78857;BME280;68207;50.078;19.936;2023-03-14T01:29:16;97419.06;;;11.93;47.00
78857;BME280;68207;50.078;19.936;2023-03-14T01:31:42;97415.51;;;11.94;46.95
78857;BME280;68207;50.078;19.936;2023-03-14T01:34:07;97407.83;;;11.95;46.85
78857;BME280;68207;50.078;19.936;2023-03-14T01:36:33;97405.21;;;11.94;46.63
78857;BME280;68207;50.078;19.936;2023-03-14T01:38:58;97393.13;;;11.93;46.49
78857;BME280;68207;50.078;19.936;2023-03-14T01:41:25;97392.17;;;11.91;46.39
78857;BME280;68207;50.078;19.936;2023-03-14T01:43:50;97404.91;;;11.91;46.23
78857;BME280;68207;50.078;19.936;2023-03-14T01:46:24;97409.06;;;11.89;46.29
78857;BME280;68207;50.078;19.936;2023-03-14T01:48:57;97409.96;;;11.88;46.40
78857;BME280;68207;50.078;19.936;2023-03-14T01:51:29;97404.74;;;11.86;46.26
78857;BME280;68207;50.078;19.936;2023-03-14T01:54:01;97404.25;;;11.83;46.48
78857;BME280;68207;50.078;19.936;2023-03-14T01:56:27;97400.45;;;11.80;46.47
78857;BME280;68207;50.078;19.936;2023-03-14T01:58:53;97400.30;;;11.77;46.77
78857;BME280;68207;50.078;19.936;2023-03-14T02:01:21;97394.00;;;11.75;46.59
78857;BME280;68207;50.078;19.936;2023-03-14T02:03:53;97382.11;;;11.72;46.91
78857;BME280;68207;50.078;19.936;2023-03-14T02:06:23;97374.41;;;11.69;46.95
78857;BME280;68207;50.078;19.936;2023-03-14T02:08:50;97360.84;;;11.66;46.77
78857;BME280;68207;50.078;19.936;2023-03-14T02:11:17;97350.29;;;11.64;46.60
78857;BME280;68207;50.078;19.936;2023-03-14T02:13:43;97345.54;;;11.61;46.84
78857;BME280;68207;50.078;19.936;2023-03-14T02:16:08;97337.73;;;11.59;46.94
78857;BME280;68207;50.078;19.936;2023-03-14T02:18:34;97331.55;;;11.56;46.94
78857;BME280;68207;50.078;19.936;2023-03-14T02:21:11;97327.71;;;11.54;47.15
78857;BME280;68207;50.078;19.936;2023-03-14T02:24:04;97319.91;;;11.52;47.19
78857;BME280;68207;50.078;19.936;2023-03-14T02:26:38;97309.06;;;11.49;47.18
78857;BME280;68207;50.078;19.936;2023-03-14T02:29:05;97306.03;;;11.47;47.42
78857;BME280;68207;50.078;19.936;2023-03-14T02:31:32;97295.52;;;11.44;47.60
78857;BME280;68207;50.078;19.936;2023-03-14T02:33:58;97289.66;;;11.42;47.55
78857;BME280;68207;50.078;19.936;2023-03-14T02:36:25;97288.02;;;11.40;47.73
78857;BME280;68207;50.078;19.936;2023-03-14T02:38:55;97287.71;;;11.37;47.83
78857;BME280;68207;50.078;19.936;2023-03-14T02:41:23;97288.21;;;11.35;47.69
78857;BME280;68207;50.078;19.936;2023-03-14T02:43:48;97282.70;;;11.33;48.15
78857;BME280;68207;50.078;19.936;2023-03-14T02:46:17;97278.64;;;11.30;48.04
78857;BME280;68207;50.078;19.936;2023-03-14T02:48:51;97268.70;;;11.28;48.15
78857;BME280;68207;50.078;19.936;2023-03-14T02:51:17;97263.67;;;11.25;48.15
78857;BME280;68207;50.078;19.936;2023-03-14T02:53:43;97267.02;;;11.23;48.55
78857;BME280;68207;50.078;19.936;2023-03-14T02:56:09;97261.59;;;11.20;48.48
78857;BME280;68207;50.078;19.936;2023-03-14T02:58:34;97264.47;;;11.17;48.51
78857;BME280;68207;50.078;19.936;2023-03-14T03:01:00;97266.54;;;11.15;48.74
78857;BME280;68207;50.078;19.936;2023-03-14T03:03:25;97271.86;;;11.12;48.83
78857;BME280;68207;50.078;19.936;2023-03-14T03:05:52;97256.89;;;11.11;48.62
78857;BME280;68207;50.078;19.936;2023-03-14T03:08:19;97257.56;;;11.10;48.84
78857;BME280;68207;50.078;19.936;2023-03-14T03:10:45;97253.05;;;11.08;48.98
78857;BME280;68207;50.078;19.936;2023-03-14T03:13:11;97251.88;;;11.06;48.84
78857;BME280;68207;50.078;19.936;2023-03-14T03:15:36;97249.28;;;11.05;49.09
78857;BME280;68207;50.078;19.936;2023-03-14T03:18:02;97256.58;;;11.04;49.18
78857;BME280;68207;50.078;19.936;2023-03-14T03:20:27;97253.09;;;11.03;49.28
78857;BME280;68207;50.078;19.936;2023-03-14T03:22:53;97243.33;;;11.03;49.14
78857;BME280;68207;50.078;19.936;2023-03-14T03:25:18;97233.63;;;11.03;49.11
78857;BME280;68207;50.078;19.936;2023-03-14T03:27:44;97231.42;;;11.04;49.10
78857;BME280;68207;50.078;19.936;2023-03-14T03:30:09;97227.33;;;11.06;49.03
78857;BME280;68207;50.078;19.936;2023-03-14T03:32:35;97228.89;;;11.07;49.08
78857;BME280;68207;50.078;19.936;2023-03-14T03:35:03;97228.89;;;11.09;49.27
78857;BME280;68207;50.078;19.936;2023-03-14T03:37:33;97229.66;;;11.10;49.02
78857;BME280;68207;50.078;19.936;2023-03-14T03:39:58;97231.16;;;11.10;49.11
78857;BME280;68207;50.078;19.936;2023-03-14T03:42:24;97234.65;;;11.08;49.39
78857;BME280;68207;50.078;19.936;2023-03-14T03:44:51;97234.87;;;11.06;49.64
78857;BME280;68207;50.078;19.936;2023-03-14T03:47:16;97228.69;;;11.04;49.54
78857;BME280;68207;50.078;19.936;2023-03-14T03:49:41;97226.63;;;11.01;49.40
78857;BME280;68207;50.078;19.936;2023-03-14T03:52:07;97225.81;;;10.96;49.57
78857;BME280;68207;50.078;19.936;2023-03-14T03:54:32;97226.13;;;10.93;49.77
78857;BME280;68207;50.078;19.936;2023-03-14T03:56:57;97233.95;;;10.89;49.72
78857;BME280;68207;50.078;19.936;2023-03-14T03:59:23;97241.61;;;10.85;49.72
78857;BME280;68207;50.078;19.936;2023-03-14T04:01:48;97248.17;;;10.80;49.98
78857;BME280;68207;50.078;19.936;2023-03-14T04:04:14;97255.21;;;10.77;49.81
78857;BME280;68207;50.078;19.936;2023-03-14T04:06:39;97250.27;;;10.73;50.10
78857;BME280;68207;50.078;19.936;2023-03-14T04:09:06;97242.78;;;10.69;49.96
78857;BME280;68207;50.078;19.936;2023-03-14T04:11:32;97240.08;;;10.67;50.04
78857;BME280;68207;50.078;19.936;2023-03-14T04:13:57;97241.34;;;10.66;50.28
78857;BME280;68207;50.078;19.936;2023-03-14T04:16:24;97247.76;;;10.64;50.01
78857;BME280;68207;50.078;19.936;2023-03-14T04:18:50;97251.77;;;10.62;50.26
78857;BME280;68207;50.078;19.936;2023-03-14T04:21:16;97261.21;;;10.59;50.36
78857;BME280;68207;50.078;19.936;2023-03-14T04:23:41;97260.64;;;10.57;50.45
78857;BME280;68207;50.078;19.936;2023-03-14T04:26:07;97256.87;;;10.53;50.47
78857;BME280;68207;50.078;19.936;2023-03-14T04:28:32;97265.10;;;10.49;50.45
78857;BME280;68207;50.078;19.936;2023-03-14T04:30:58;97262.11;;;10.44;50.76
78857;BME280;68207;50.078;19.936;2023-03-14T04:33:24;97262.16;;;10.41;50.75
78857;BME280;68207;50.078;19.936;2023-03-14T04:35:53;97258.15;;;10.38;50.67
78857;BME280;68207;50.078;19.936;2023-03-14T04:38:19;97265.90;;;10.37;50.93
78857;BME280;68207;50.078;19.936;2023-03-14T04:40:44;97267.67;;;10.36;50.70
78857;BME280;68207;50.078;19.936;2023-03-14T04:43:10;97275.30;;;10.33;51.18
78857;BME280;68207;50.078;19.936;2023-03-14T04:45:37;97271.42;;;10.26;51.42
78857;BME280;68207;50.078;19.936;2023-03-14T04:48:02;97281.91;;;10.21;51.40
78857;BME280;68207;50.078;19.936;2023-03-14T04:50:28;97289.34;;;10.16;51.67
78857;BME280;68207;50.078;19.936;2023-03-14T04:52:53;97294.85;;;10.09;51.75
78857;BME280;68207;50.078;19.936;2023-03-14T04:55:18;97288.94;;;9.98;52.13
78857;BME280;68207;50.078;19.936;2023-03-14T04:57:44;97286.04;;;9.88;52.35
78857;BME280;68207;50.078;19.936;2023-03-14T05:00:10;97308.42;;;9.80;52.61
78857;BME280;68207;50.078;19.936;2023-03-14T05:02:35;97312.39;;;9.71;52.94
78857;BME280;68207;50.078;19.936;2023-03-14T05:05:01;97308.55;;;9.60;53.27
78857;BME280;68207;50.078;19.936;2023-03-14T05:07:26;97299.73;;;9.51;53.40
78857;BME280;68207;50.078;19.936;2023-03-14T05:09:51;97303.86;;;9.43;53.51
78857;BME280;68207;50.078;19.936;2023-03-14T05:12:19;97298.41;;;9.37;53.79
78857;BME280;68207;50.078;19.936;2023-03-14T05:14:44;97294.56;;;9.30;53.81
78857;BME280;68207;50.078;19.936;2023-03-14T05:17:09;97290.13;;;9.24;54.01
78857;BME280;68207;50.078;19.936;2023-03-14T05:19:35;97289.88;;;9.18;54.25
78857;BME280;68207;50.078;19.936;2023-03-14T05:22:00;97292.20;;;9.11;54.57
78857;BME280;68207;50.078;19.936;2023-03-14T05:24:26;97288.02;;;9.06;54.79
78857;BME280;68207;50.078;19.936;2023-03-14T05:26:52;97288.02;;;9.01;54.83
78857;BME280;68207;50.078;19.936;2023-03-14T05:29:18;97278.23;;;8.98;55.03
78857;BME280;68207;50.078;19.936;2023-03-14T05:31:44;97270.29;;;8.96;55.20
78857;BME280;68207;50.078;19.936;2023-03-14T05:34:09;97270.04;;;8.96;55.25
78857;BME280;68207;50.078;19.936;2023-03-14T05:36:35;97268.91;;;8.95;55.41
78857;BME280;68207;50.078;19.936;2023-03-14T05:39:00;97254.95;;;8.95;55.45
78857;BME280;68207;50.078;19.936;2023-03-14T05:41:26;97247.73;;;8.95;55.60
78857;BME280;68207;50.078;19.936;2023-03-14T05:43:51;97242.36;;;8.97;55.55
78857;BME280;68207;50.078;19.936;2023-03-14T05:46:17;97251.91;;;8.99;55.74
78857;BME280;68207;50.078;19.936;2023-03-14T05:48:42;97252.56;;;8.98;55.92
78857;BME280;68207;50.078;19.936;2023-03-14T05:51:07;97256.63;;;8.97;56.06
78857;BME280;68207;50.078;19.936;2023-03-14T05:53:33;97253.23;;;8.98;56.20
78857;BME280;68207;50.078;19.936;2023-03-14T05:55:58;97254.80;;;9.00;56.29
78857;BME280;68207;50.078;19.936;2023-03-14T05:58:24;97260.41;;;9.04;56.18
78857;BME280;68207;50.078;19.936;2023-03-14T06:00:50;97252.48;;;9.07;56.34
78857;BME280;68207;50.078;19.936;2023-03-14T06:03:15;97252.27;;;9.12;56.27
78857;BME280;68207;50.078;19.936;2023-03-14T06:05:41;97236.04;;;9.16;56.21
78857;BME280;68207;50.078;19.936;2023-03-14T06:08:06;97245.75;;;9.22;56.06
78857;BME280;68207;50.078;19.936;2023-03-14T06:10:32;97248.55;;;9.29;56.03
78857;BME280;68207;50.078;19.936;2023-03-14T06:12:57;97254.28;;;9.34;55.75
78857;BME280;68207;50.078;19.936;2023-03-14T06:15:23;97247.42;;;9.42;55.98
78857;BME280;68207;50.078;19.936;2023-03-14T06:17:48;97242.48;;;9.50;55.98
78857;BME280;68207;50.078;19.936;2023-03-14T06:20:13;97246.81;;;9.56;55.81
78857;BME280;68207;50.078;19.936;2023-03-14T06:22:39;97247.30;;;9.63;55.95
78857;BME280;68207;50.078;19.936;2023-03-14T06:25:06;97242.88;;;9.71;55.87
78857;BME280;68207;50.078;19.936;2023-03-14T06:27:31;97243.01;;;9.79;55.96
78857;BME280;68207;50.078;19.936;2023-03-14T06:29:57;97245.83;;;9.88;56.08
78857;BME280;68207;50.078;19.936;2023-03-14T06:32:22;97237.19;;;9.97;55.42
78857;BME280;68207;50.078;19.936;2023-03-14T06:34:48;97229.89;;;10.01;55.22
78857;BME280;68207;50.078;19.936;2023-03-14T06:37:13;97224.15;;;10.07;55.16
78857;BME280;68207;50.078;19.936;2023-03-14T06:39:38;97222.23;;;10.20;55.31
78857;BME280;68207;50.078;19.936;2023-03-14T06:42:05;97220.96;;;10.36;55.10
78857;BME280;68207;50.078;19.936;2023-03-14T06:44:30;97211.75;;;10.55;55.13
78857;BME280;68207;50.078;19.936;2023-03-14T06:46:55;97206.86;;;10.76;54.80
78857;BME280;68207;50.078;19.936;2023-03-14T06:49:21;97209.48;;;10.98;54.91
78857;BME280;68207;50.078;19.936;2023-03-14T06:51:46;97207.70;;;11.23;54.53
78857;BME280;68207;50.078;19.936;2023-03-14T06:54:12;97203.02;;;11.46;53.84
78857;BME280;68207;50.078;19.936;2023-03-14T06:56:37;97203.63;;;11.68;53.71
78857;BME280;68207;50.078;19.936;2023-03-14T06:59:03;97204.83;;;11.92;53.32
78857;BME280;68207;50.078;19.936;2023-03-14T07:01:30;97207.80;;;12.18;52.98
78857;BME280;68207;50.078;19.936;2023-03-14T07:03:55;97206.35;;;12.45;52.77
78857;BME280;68207;50.078;19.936;2023-03-14T07:06:21;97205.38;;;12.74;52.11
78857;BME280;68207;50.078;19.936;2023-03-14T07:08:47;97194.64;;;13.05;51.63
78857;BME280;68207;50.078;19.936;2023-03-14T07:11:13;97193.05;;;13.33;50.73
78857;BME280;68207;50.078;19.936;2023-03-14T07:13:39;97191.18;;;13.59;50.11
78857;BME280;68207;50.078;19.936;2023-03-14T07:16:05;97185.05;;;13.85;49.72
78857;BME280;68207;50.078;19.936;2023-03-14T07:18:31;97183.98;;;14.09;49.35
78857;BME280;68207;50.078;19.936;2023-03-14T07:20:56;97187.67;;;14.35;48.86
78857;BME280;68207;50.078;19.936;2023-03-14T07:23:21;97189.30;;;14.59;48.62
78857;BME280;68207;50.078;19.936;2023-03-14T07:25:47;97184.75;;;14.85;48.09
78857;BME280;68207;50.078;19.936;2023-03-14T07:28:12;97181.39;;;15.10;47.61
78857;BME280;68207;50.078;19.936;2023-03-14T07:30:37;97182.20;;;15.32;47.13
78857;BME280;68207;50.078;19.936;2023-03-14T07:33:03;97181.20;;;15.51;46.37
78857;BME280;68207;50.078;19.936;2023-03-14T07:35:28;97180.63;;;15.69;46.10
78857;BME280;68207;50.078;19.936;2023-03-14T07:37:53;97178.64;;;15.89;45.55
78857;BME280;68207;50.078;19.936;2023-03-14T07:40:19;97180.02;;;16.11;44.91
78857;BME280;68207;50.078;19.936;2023-03-14T07:42:44;97177.73;;;16.29;44.14
78857;BME280;68207;50.078;19.936;2023-03-14T07:45:10;97164.27;;;16.42;43.62
78857;BME280;68207;50.078;19.936;2023-03-14T07:47:35;97162.33;;;16.51;43.18
78857;BME280;68207;50.078;19.936;2023-03-14T07:50:01;97163.67;;;16.53;42.34
78857;BME280;68207;50.078;19.936;2023-03-14T07:52:27;97166.50;;;16.35;42.11
78857;BME280;68207;50.078;19.936;2023-03-14T07:54:53;97170.83;;;16.23;42.53
78857;BME280;68207;50.078;19.936;2023-03-14T07:57:18;97181.23;;;16.22;42.31
78857;BME280;68207;50.078;19.936;2023-03-14T07:59:43;97188.55;;;16.14;41.85
78857;BME280;68207;50.078;19.936;2023-03-14T08:02:12;97194.76;;;16.15;42.26
78857;BME280;68207;50.078;19.936;2023-03-14T08:04:39;97192.53;;;16.23;42.09
78857;BME280;68207;50.078;19.936;2023-03-14T08:07:04;97199.28;;;16.29;41.97
78857;BME280;68207;50.078;19.936;2023-03-14T08:09:30;97196.04;;;16.35;41.07
78857;BME280;68207;50.078;19.936;2023-03-14T08:11:55;97192.77;;;16.45;41.33
78857;BME280;68207;50.078;19.936;2023-03-14T08:14:21;97186.16;;;16.58;40.86
78857;BME280;68207;50.078;19.936;2023-03-14T08:16:49;97188.83;;;16.68;40.55
78857;BME280;68207;50.078;19.936;2023-03-14T08:19:15;97191.50;;;16.80;40.34
78857;BME280;68207;50.078;19.936;2023-03-14T08:21:40;97199.67;;;16.79;39.53
78857;BME280;68207;50.078;19.936;2023-03-14T08:24:05;97192.38;;;16.65;39.44
78857;BME280;68207;50.078;19.936;2023-03-14T08:26:31;97189.48;;;16.53;40.02
78857;BME280;68207;50.078;19.936;2023-03-14T08:28:56;97186.98;;;16.51;39.61
78857;BME280;68207;50.078;19.936;2023-03-14T08:31:21;97182.79;;;16.37;39.46
78857;BME280;68207;50.078;19.936;2023-03-14T08:33:47;97193.33;;;16.28;39.86
78857;BME280;68207;50.078;19.936;2023-03-14T08:36:12;97194.69;;;16.18;39.78
78857;BME280;68207;50.078;19.936;2023-03-14T08:38:37;97196.70;;;16.07;39.92
78857;BME280;68207;50.078;19.936;2023-03-14T08:41:03;97177.88;;;15.97;40.08
78857;BME280;68207;50.078;19.936;2023-03-14T08:43:29;97174.02;;;15.92;40.50
78857;BME280;68207;50.078;19.936;2023-03-14T08:45:57;97176.09;;;15.96;40.47
78857;BME280;68207;50.078;19.936;2023-03-14T08:48:23;97178.35;;;15.98;40.61
78857;BME280;68207;50.078;19.936;2023-03-14T08:50:48;97177.87;;;15.97;40.72
78857;BME280;68207;50.078;19.936;2023-03-14T08:53:13;97174.98;;;16.01;40.75
78857;BME280;68207;50.078;19.936;2023-03-14T08:55:39;97168.27;;;16.03;40.60
78857;BME280;68207;50.078;19.936;2023-03-14T08:58:04;97167.24;;;15.98;40.68
78857;BME280;68207;50.078;19.936;2023-03-14T09:00:30;97177.57;;;15.94;40.54
78857;BME280;68207;50.078;19.936;2023-03-14T09:02:55;97179.95;;;15.87;40.61
78857;BME280;68207;50.078;19.936;2023-03-14T09:05:20;97192.34;;;15.78;40.34
78857;BME280;68207;50.078;19.936;2023-03-14T09:07:46;97218.05;;;15.69;40.36
78857;BME280;68207;50.078;19.936;2023-03-14T09:10:11;97216.43;;;15.57;40.28
78857;BME280;68207;50.078;19.936;2023-03-14T09:12:37;97224.90;;;15.46;40.40
78857;BME280;68207;50.078;19.936;2023-03-14T09:15:02;97221.70;;;15.39;40.80
78857;BME280;68207;50.078;19.936;2023-03-14T09:17:28;97230.08;;;15.38;40.94
78857;BME280;68207;50.078;19.936;2023-03-14T09:19:53;97231.44;;;15.36;40.81
78857;BME280;68207;50.078;19.936;2023-03-14T09:22:18;97223.83;;;15.31;40.76
78857;BME280;68207;50.078;19.936;2023-03-14T09:24:45;97221.34;;;15.29;40.86
78857;BME280;68207;50.078;19.936;2023-03-14T09:27:11;97213.67;;;15.22;40.79
78857;BME280;68207;50.078;19.936;2023-03-14T09:29:37;97216.02;;;15.19;41.31
78857;BME280;68207;50.078;19.936;2023-03-14T09:32:02;97229.63;;;15.19;41.18
78857;BME280;68207;50.078;19.936;2023-03-14T09:34:28;97233.78;;;15.18;41.23
78857;BME280;68207;50.078;19.936;2023-03-14T09:36:53;97233.45;;;15.21;41.34
78857;BME280;68207;50.078;19.936;2023-03-14T09:39:19;97231.02;;;15.26;41.50
78857;BME280;68207;50.078;19.936;2023-03-14T09:41:47;97222.84;;;15.36;41.40
78857;BME280;68207;50.078;19.936;2023-03-14T09:44:32;97225.45;;;15.48;41.05
78857;BME280;68207;50.078;19.936;2023-03-14T09:47:03;97226.31;;;15.53;40.84
78857;BME280;68207;50.078;19.936;2023-03-14T09:49:35;97241.61;;;15.52;40.76
78857;BME280;68207;50.078;19.936;2023-03-14T09:52:06;97235.98;;;15.52;40.86
78857;BME280;68207;50.078;19.936;2023-03-14T09:54:44;97227.08;;;15.49;40.66
78857;BME280;68207;50.078;19.936;2023-03-14T09:57:18;97230.02;;;15.46;40.75
78857;BME280;68207;50.078;19.936;2023-03-14T09:59:45;97235.39;;;15.50;40.93
78857;BME280;68207;50.078;19.936;2023-03-14T10:02:24;97250.02;;;15.56;40.70
78857;BME280;68207;50.078;19.936;2023-03-14T10:04:53;97233.17;;;15.60;40.96
78857;BME280;68207;50.078;19.936;2023-03-14T10:07:29;97234.25;;;15.75;40.99
78857;BME280;68207;50.078;19.936;2023-03-14T10:09:55;97237.66;;;15.91;40.75
78857;BME280;68207;50.078;19.936;2023-03-14T10:12:31;97255.45;;;16.11;40.28
78857;BME280;68207;50.078;19.936;2023-03-14T10:15:07;97259.23;;;16.28;39.83
78857;BME280;68207;50.078;19.936;2023-03-14T10:17:46;97250.84;;;16.38;40.06
78857;BME280;68207;50.078;19.936;2023-03-14T10:20:31;97251.89;;;16.54;40.08
78857;BME280;68207;50.078;19.936;2023-03-14T10:23:24;97256.85;;;16.69;39.72
78857;BME280;68207;50.078;19.936;2023-03-14T10:26:16;97252.20;;;16.80;39.45
78857;BME280;68207;50.078;19.936;2023-03-14T10:28:47;97255.82;;;16.95;39.02
78857;BME280;68207;50.078;19.936;2023-03-14T10:31:13;97254.08;;;17.05;38.87
78857;BME280;68207;50.078;19.936;2023-03-14T10:33:39;97266.77;;;16.99;38.68
78857;BME280;68207;50.078;19.936;2023-03-14T10:38:39;97258.14;;;16.97;39.41
78857;BME280;68207;50.078;19.936;2023-03-14T10:41:25;97260.92;;;17.03;39.34
78857;BME280;68207;50.078;19.936;2023-03-14T10:43:54;97254.73;;;17.11;39.40
78857;BME280;68207;50.078;19.936;2023-03-14T10:46:23;97254.85;;;17.14;38.99
78857;BME280;68207;50.078;19.936;2023-03-14T10:48:49;97263.20;;;17.13;39.14
78857;BME280;68207;50.078;19.936;2023-03-14T10:51:29;97260.32;;;17.14;39.33
78857;BME280;68207;50.078;19.936;2023-03-14T10:54:03;97253.03;;;17.14;39.55
78857;BME280;68207;50.078;19.936;2023-03-14T10:56:36;97245.27;;;17.20;39.80
78857;BME280;68207;50.078;19.936;2023-03-14T10:59:03;97250.35;;;17.20;39.32
78857;BME280;68207;50.078;19.936;2023-03-14T11:02:17;97245.20;;;17.06;39.54
78857;BME280;68207;50.078;19.936;2023-03-14T11:07:24;97235.40;;;16.69;40.14
78857;BME280;68207;50.078;19.936;2023-03-14T11:15:45;97243.79;;;16.20;41.37
78857;BME280;68207;50.078;19.936;2023-03-14T11:21:43;97238.23;;;15.99;42.08
78857;BME280;68207;50.078;19.936;2023-03-14T11:27:16;97224.38;;;15.81;42.48
78857;BME280;68207;50.078;19.936;2023-03-14T11:33:07;97231.92;;;15.61;43.05
78857;BME280;68207;50.078;19.936;2023-03-14T11:35:38;97226.33;;;15.52;43.57
78857;BME280;68207;50.078;19.936;2023-03-14T11:38:29;97221.60;;;15.43;43.57
78857;BME280;68207;50.078;19.936;2023-03-14T11:40:57;97226.19;;;15.39;43.89
78857;BME280;68207;50.078;19.936;2023-03-14T11:43:35;97225.17;;;15.35;43.92
78857;BME280;68207;50.078;19.936;2023-03-14T11:46:21;97221.61;;;15.28;44.23
78857;BME280;68207;50.078;19.936;2023-03-14T11:49:05;97222.94;;;15.25;44.30
78857;BME280;68207;50.078;19.936;2023-03-14T11:51:38;97224.38;;;15.21;44.38
78857;BME280;68207;50.078;19.936;2023-03-14T11:56:49;97222.61;;;15.18;44.70
78857;BME280;68207;50.078;19.936;2023-03-14T12:01:57;97226.56;;;15.21;44.87
78857;BME280;68207;50.078;19.936;2023-03-14T12:04:39;97229.05;;;15.20;44.85
78857;BME280;68207;50.078;19.936;2023-03-14T12:07:17;97227.23;;;15.19;44.95
78857;BME280;68207;50.078;19.936;2023-03-14T12:09:45;97223.33;;;15.16;45.07
78857;BME280;68207;50.078;19.936;2023-03-14T12:12:15;97220.02;;;15.15;45.23
78857;BME280;68207;50.078;19.936;2023-03-14T12:14:45;97221.60;;;15.18;45.24
78857;BME280;68207;50.078;19.936;2023-03-14T12:17:24;97223.30;;;15.20;45.27
78857;BME280;68207;50.078;19.936;2023-03-14T12:20:17;97226.44;;;15.21;45.35
78857;BME280;68207;50.078;19.936;2023-03-14T12:22:53;97214.77;;;15.18;45.55
78857;BME280;68207;50.078;19.936;2023-03-14T12:25:24;97214.69;;;15.16;45.48
78857;BME280;68207;50.078;19.936;2023-03-14T12:30:36;97209.11;;;15.11;45.15
78857;BME280;68207;50.078;19.936;2023-03-14T12:33:19;97201.09;;;15.06;45.30
78857;BME280;68207;50.078;19.936;2023-03-14T12:35:47;97200.42;;;15.05;45.18
78857;BME280;68207;50.078;19.936;2023-03-14T12:43:41;97179.05;;;15.08;45.59
78857;BME280;68207;50.078;19.936;2023-03-14T12:46:26;97175.66;;;15.11;45.53
78857;BME280;68207;50.078;19.936;2023-03-14T12:51:30;97166.46;;;15.14;45.22
78857;BME280;68207;50.078;19.936;2023-03-14T12:54:24;97172.40;;;15.15;45.35
78857;BME280;68207;50.078;19.936;2023-03-14T12:59:40;97178.27;;;15.08;45.39
78857;BME280;68207;50.078;19.936;2023-03-14T13:02:21;97178.59;;;15.05;45.30
78857;BME280;68207;50.078;19.936;2023-03-14T13:04:51;97184.27;;;15.03;45.49
78857;BME280;68207;50.078;19.936;2023-03-14T13:10:14;97188.80;;;14.95;45.38
78857;BME280;68207;50.078;19.936;2023-03-14T13:15:39;97199.67;;;14.84;45.92
78857;BME280;68207;50.078;19.936;2023-03-14T13:18:36;97199.88;;;14.80;46.15
78857;BME280;68207;50.078;19.936;2023-03-14T13:21:24;97200.94;;;14.77;46.38
78857;BME280;68207;50.078;19.936;2023-03-14T13:26:24;97215.12;;;14.70;46.71
78857;BME280;68207;50.078;19.936;2023-03-14T13:28:50;97212.17;;;14.66;46.96
78857;BME280;68207;50.078;19.936;2023-03-14T13:31:26;97218.38;;;14.64;47.12
78857;BME280;68207;50.078;19.936;2023-03-14T13:34:01;97217.90;;;14.61;47.37
78857;BME280;68207;50.078;19.936;2023-03-14T13:36:27;97217.02;;;14.54;47.67
78857;BME280;68207;50.078;19.936;2023-03-14T13:39:00;97219.39;;;14.48;47.94
78857;BME280;68207;50.078;19.936;2023-03-14T13:41:27;97225.92;;;14.44;48.05
78857;BME280;68207;50.078;19.936;2023-03-14T13:43:59;97229.57;;;14.39;48.38